createdAt,value
2022-11-14T00:01:21.209Z,53.33
2022-11-14T00:03:52.330Z,49.50
2022-11-14T00:06:20.944Z,46.23
2022-11-14T00:08:49.008Z,55.53
2022-11-14T00:11:17.080Z,48.40
2022-11-14T00:13:45.221Z,47.93
2022-11-14T00:16:13.248Z,51.70
2022-11-14T00:18:41.289Z,53.47
2022-11-14T00:21:10.754Z,54.27
2022-11-14T00:23:38.843Z,49.30
2022-11-14T00:26:07.008Z,51.37
2022-11-14T00:28:35.120Z,54.80
2022-11-14T00:31:03.224Z,54.70
2022-11-14T00:33:31.296Z,52.67
2022-11-14T00:35:59.446Z,54.50
2022-11-14T00:38:29.302Z,54.70
2022-11-14T00:40:57.691Z,54.93
2022-11-14T00:43:25.908Z,52.80
2022-11-14T00:45:54.017Z,52.00
2022-11-14T00:48:22.113Z,57.80
2022-11-14T00:50:50.188Z,53.80
2022-11-14T00:53:18.358Z,58.77
2022-11-14T00:55:47.758Z,56.80
2022-11-14T00:58:15.864Z,55.47
2022-11-14T01:00:44.035Z,51.20
2022-11-14T01:03:12.349Z,48.63
2022-11-14T01:05:44.050Z,46.37
2022-11-14T01:08:13.002Z,47.10
2022-11-14T01:10:42.070Z,46.70
2022-11-14T01:13:12.115Z,40.50
2022-11-14T01:15:41.282Z,41.43
2022-11-14T01:18:09.968Z,47.83
2022-11-14T01:20:41.432Z,41.60
2022-11-14T01:23:10.415Z,43.83
2022-11-14T01:25:40.102Z,42.57
2022-11-14T01:28:09.118Z,35.70
2022-11-14T01:30:39.216Z,41.03
2022-11-14T01:33:08.153Z,37.40
2022-11-14T01:35:38.060Z,48.60
2022-11-14T01:38:07.059Z,40.43
2022-11-14T01:40:35.221Z,36.73
2022-11-14T01:43:29.663Z,36.47
2022-11-14T01:46:02.442Z,35.00
2022-11-14T01:48:38.450Z,37.60
2022-11-14T01:51:19.406Z,33.67
2022-11-14T01:53:49.547Z,35.57
2022-11-14T01:56:20.596Z,36.47
2022-11-14T01:58:53.309Z,32.87
2022-11-14T02:01:23.293Z,30.70
2022-11-14T02:03:54.465Z,32.07
2022-11-14T02:06:25.048Z,30.70
2022-11-14T02:08:55.107Z,28.37
2022-11-14T02:11:23.220Z,31.43
2022-11-14T02:13:52.141Z,28.17
2022-11-14T02:16:20.502Z,31.30
2022-11-14T02:18:50.001Z,29.10
2022-11-14T02:21:19.482Z,26.93
2022-11-14T02:23:47.528Z,30.00
2022-11-14T02:26:19.111Z,34.83
2022-11-14T02:28:47.373Z,29.93
2022-11-14T02:31:16.320Z,32.00
2022-11-14T02:33:44.714Z,26.47
2022-11-14T02:36:12.808Z,27.70
2022-11-14T02:38:42.208Z,31.17
2022-11-14T02:41:10.304Z,28.60
2022-11-14T02:43:38.319Z,32.90
2022-11-14T02:46:06.618Z,31.40
2022-11-14T02:48:34.713Z,32.77
2022-11-14T02:51:02.903Z,32.53
2022-11-14T02:53:31.012Z,31.43
2022-11-14T02:56:00.472Z,35.17
2022-11-14T02:58:28.770Z,34.77
2022-11-14T03:01:18.982Z,32.47
2022-11-14T03:03:44.990Z,36.17
2022-11-14T03:06:13.088Z,39.53
2022-11-14T03:08:41.081Z,34.67
2022-11-14T03:11:11.684Z,37.30
2022-11-14T03:13:39.751Z,36.17
2022-11-14T03:16:08.879Z,36.23
2022-11-14T03:18:37.252Z,36.03
2022-11-14T03:21:09.071Z,35.67
2022-11-14T03:23:37.647Z,37.10
2022-11-14T03:26:08.115Z,38.80
2022-11-14T03:28:38.424Z,37.90
2022-11-14T03:31:07.333Z,41.47
2022-11-14T03:33:35.799Z,39.00
2022-11-14T03:36:05.155Z,43.57
2022-11-14T03:38:33.758Z,35.80
2022-11-14T03:41:02.029Z,40.33
2022-11-14T03:43:33.032Z,41.00
2022-11-14T03:46:03.487Z,44.40
2022-11-14T03:48:32.378Z,41.47
2022-11-14T03:51:00.868Z,44.53
2022-11-14T03:53:29.372Z,44.50
2022-11-14T03:55:57.433Z,44.43
2022-11-14T03:58:25.565Z,45.47
2022-11-14T04:00:55.949Z,44.43
2022-11-14T04:03:26.155Z,44.03
2022-11-14T04:05:54.460Z,45.47
2022-11-14T04:08:22.576Z,53.67
2022-11-14T04:10:50.897Z,41.63
2022-11-14T04:13:18.973Z,45.80
2022-11-14T04:15:47.089Z,58.90
2022-11-14T04:18:15.108Z,39.37
2022-11-14T04:20:44.547Z,44.30
2022-11-14T04:23:12.584Z,44.07
2022-11-14T04:25:40.716Z,45.37
2022-11-14T04:28:08.812Z,42.03
2022-11-14T04:30:36.901Z,40.50
2022-11-14T04:33:05.053Z,40.60
2022-11-14T04:35:33.157Z,39.60
2022-11-14T04:38:02.673Z,36.30
2022-11-14T04:40:30.870Z,38.13
2022-11-14T04:42:58.943Z,38.80
2022-11-14T04:45:27.125Z,34.57
2022-11-14T04:47:55.461Z,41.33
2022-11-14T04:50:23.540Z,34.93
2022-11-14T04:52:54.386Z,33.57
2022-11-14T04:55:26.249Z,36.07
2022-11-14T04:57:58.459Z,31.80
2022-11-14T05:00:28.474Z,33.93
2022-11-14T05:02:56.542Z,29.50
2022-11-14T05:05:24.632Z,35.03
2022-11-14T05:07:52.673Z,31.60
2022-11-14T05:10:20.685Z,28.10
2022-11-14T05:12:50.090Z,27.37
2022-11-14T05:15:18.338Z,28.30
2022-11-14T05:17:46.455Z,32.60
2022-11-14T05:20:14.950Z,29.40
2022-11-14T05:22:43.010Z,26.73
2022-11-14T05:25:11.685Z,26.00
2022-11-14T05:27:39.700Z,27.00
2022-11-14T05:30:10.710Z,26.47
2022-11-14T05:32:38.917Z,27.90
2022-11-14T05:35:07.936Z,26.63
2022-11-14T05:37:36.253Z,25.93
2022-11-14T05:40:04.939Z,28.50
2022-11-14T05:42:33.130Z,25.53
2022-11-14T05:45:01.237Z,30.17
2022-11-14T05:47:30.772Z,24.73
2022-11-14T05:49:58.902Z,23.23
2022-11-14T05:52:27.096Z,23.20
2022-11-14T05:54:55.273Z,22.53
2022-11-14T05:57:23.391Z,22.47
2022-11-14T05:59:51.416Z,20.60
2022-11-14T06:02:19.535Z,20.03
2022-11-14T06:04:49.028Z,19.57
2022-11-14T06:07:20.069Z,19.37
2022-11-14T06:09:48.574Z,21.43
2022-11-14T06:12:16.619Z,15.40
2022-11-14T06:14:44.672Z,17.03
2022-11-14T06:17:12.874Z,18.50
2022-11-14T06:19:40.890Z,16.53
2022-11-14T06:22:10.257Z,15.27
2022-11-14T06:24:38.264Z,15.70
2022-11-14T06:27:06.224Z,17.73
2022-11-14T06:29:35.660Z,13.20
2022-11-14T06:32:03.903Z,14.37
2022-11-14T06:34:31.969Z,14.23
2022-11-14T06:37:00.003Z,19.33
2022-11-14T06:39:29.412Z,14.80
2022-11-14T06:41:58.745Z,17.33
2022-11-14T06:44:30.844Z,15.70
2022-11-14T06:46:59.194Z,13.20
2022-11-14T06:49:27.973Z,15.67
2022-11-14T06:51:56.363Z,17.27
2022-11-14T06:54:25.332Z,18.30
2022-11-14T06:57:00.745Z,16.73
2022-11-14T06:59:36.279Z,14.90
2022-11-14T07:02:15.394Z,14.10
2022-11-14T07:04:45.890Z,18.07
2022-11-14T07:07:13.982Z,14.40
2022-11-14T07:09:42.123Z,13.83
2022-11-14T07:12:12.257Z,17.90
2022-11-14T07:14:40.337Z,17.70
2022-11-14T07:17:08.436Z,17.00
2022-11-14T07:19:36.558Z,17.10
2022-11-14T07:22:04.664Z,17.27
2022-11-14T07:24:32.714Z,19.97
2022-11-14T07:27:02.183Z,17.93
2022-11-14T07:29:31.678Z,18.40
2022-11-14T07:31:59.745Z,15.40
2022-11-14T07:34:27.890Z,17.10
2022-11-14T07:36:56.130Z,17.37
2022-11-14T07:39:24.229Z,16.53
2022-11-14T07:41:52.248Z,17.43
2022-11-14T07:44:20.259Z,15.53
2022-11-14T07:46:50.179Z,16.03
2022-11-14T07:49:18.282Z,17.37
2022-11-14T07:51:46.310Z,16.73
2022-11-14T07:54:14.479Z,17.07
2022-11-14T07:56:42.532Z,16.77
2022-11-14T07:59:10.505Z,14.43
2022-11-14T08:01:38.489Z,15.87
2022-11-14T08:04:08.093Z,15.87
2022-11-14T08:06:36.103Z,19.63
2022-11-14T08:09:04.220Z,17.57
2022-11-14T08:11:52.198Z,28.53
2022-11-14T08:14:20.538Z,24.57
2022-11-14T08:16:48.585Z,17.40
2022-11-14T08:19:18.061Z,17.33
2022-11-14T08:21:46.750Z,15.57
2022-11-14T08:24:14.854Z,17.40
2022-11-14T08:26:42.822Z,20.23
2022-11-14T08:29:10.832Z,18.03
2022-11-14T08:31:39.138Z,15.37
2022-11-14T08:34:07.311Z,18.30
2022-11-14T08:36:37.015Z,18.97
2022-11-14T08:39:05.504Z,16.03
2022-11-14T08:41:33.565Z,15.43
2022-11-14T08:44:01.879Z,14.60
2022-11-14T08:46:29.911Z,13.53
2022-11-14T08:48:57.949Z,17.07
2022-11-14T08:51:26.012Z,14.40
2022-11-14T08:53:55.527Z,17.70
2022-11-14T08:56:23.622Z,13.73
2022-11-14T08:58:51.911Z,16.30
2022-11-14T09:01:19.908Z,13.50
2022-11-14T09:03:48.083Z,13.67
2022-11-14T09:06:16.615Z,16.50
2022-11-14T09:08:44.655Z,12.97
2022-11-14T09:11:18.085Z,14.40
2022-11-14T09:13:47.809Z,14.87
2022-11-14T09:16:16.377Z,12.37
2022-11-14T09:18:44.456Z,12.17
2022-11-14T09:21:12.629Z,16.23
2022-11-14T09:23:40.683Z,13.70
2022-11-14T09:26:10.425Z,14.40
2022-11-14T09:28:39.973Z,12.17
2022-11-14T09:31:09.628Z,14.20
2022-11-14T09:33:37.916Z,12.57
2022-11-14T09:36:08.302Z,13.95
2022-11-14T09:38:38.656Z,12.77
2022-11-14T09:41:23.557Z,16.97
2022-11-14T09:44:24.052Z,11.97
2022-11-14T09:46:57.229Z,12.93
2022-11-14T09:49:30.845Z,10.53
2022-11-14T09:52:05.067Z,13.37
2022-11-14T09:54:43.579Z,15.53
2022-11-14T09:57:17.925Z,9.63
2022-11-14T09:59:48.329Z,10.27
2022-11-14T10:02:27.085Z,11.97
2022-11-14T10:05:11.376Z,9.33
2022-11-14T10:07:49.818Z,8.50
2022-11-14T10:10:30.042Z,10.23
2022-11-14T10:13:12.590Z,10.03
2022-11-14T10:15:50.012Z,10.60
2022-11-14T10:18:40.000Z,11.87
2022-11-14T10:21:24.556Z,14.63
2022-11-14T10:24:00.302Z,12.10
2022-11-14T10:26:31.114Z,13.97
2022-11-14T10:29:23.371Z,10.67
2022-11-14T10:32:02.291Z,15.07
2022-11-14T10:34:35.489Z,14.10
2022-11-14T10:37:14.393Z,15.63
2022-11-14T10:39:49.023Z,14.53
2022-11-14T10:42:21.906Z,14.77
2022-11-14T10:44:54.983Z,18.53
2022-11-14T10:47:26.546Z,15.60
2022-11-14T10:49:58.220Z,13.03
2022-11-14T10:52:40.575Z,17.33
2022-11-14T10:55:14.535Z,16.03
2022-11-14T10:57:43.141Z,18.50
2022-11-14T11:00:14.268Z,16.10
2022-11-14T11:02:52.192Z,16.40
2022-11-14T11:05:22.763Z,16.83
2022-11-14T11:08:36.570Z,19.60
2022-11-14T11:11:18.436Z,15.87
2022-11-14T11:13:54.150Z,14.53
2022-11-14T11:16:24.449Z,16.57
2022-11-14T11:18:54.144Z,15.37
2022-11-14T11:21:24.336Z,15.47
2022-11-14T11:23:54.427Z,14.57
2022-11-14T11:26:25.687Z,14.97
2022-11-14T11:29:06.521Z,16.23
2022-11-14T11:31:52.421Z,13.77
2022-11-14T11:34:26.390Z,18.83
2022-11-14T11:37:00.371Z,16.60
2022-11-14T11:39:31.729Z,15.97
2022-11-14T11:42:11.139Z,15.90
2022-11-14T11:44:44.461Z,11.93
2022-11-14T11:47:17.101Z,18.40
2022-11-14T11:49:53.247Z,14.10
2022-11-14T11:52:33.697Z,14.23
2022-11-14T11:55:14.712Z,13.73
2022-11-14T11:57:45.888Z,13.33
2022-11-14T12:00:18.045Z,15.50
2022-11-14T12:02:50.303Z,13.43
2022-11-14T12:05:27.182Z,12.77
2022-11-14T12:08:01.240Z,13.43
2022-11-14T12:10:34.037Z,15.10
2022-11-14T12:13:32.106Z,12.20
2022-11-14T12:18:16.219Z,12.93
2022-11-14T12:21:06.825Z,14.93
2022-11-14T12:24:18.552Z,16.70
2022-11-14T12:27:02.981Z,16.43
2022-11-14T12:29:49.748Z,17.83
2022-11-14T12:32:24.135Z,20.77
2022-11-14T12:34:53.958Z,21.43
2022-11-14T12:37:24.998Z,23.73
2022-11-14T12:39:59.577Z,23.67
2022-11-14T12:42:28.014Z,20.37
2022-11-14T12:44:56.577Z,23.97
2022-11-14T12:47:25.942Z,23.77
2022-11-14T12:50:25.213Z,23.50
2022-11-14T12:52:54.933Z,23.63
2022-11-14T12:56:11.423Z,22.17
2022-11-14T12:59:09.159Z,19.83
2022-11-14T13:01:50.872Z,18.23
2022-11-14T13:04:29.673Z,18.30
2022-11-14T13:07:13.714Z,17.20
2022-11-14T13:09:58.605Z,14.20
2022-11-14T13:12:47.622Z,14.63
2022-11-14T13:15:49.296Z,14.00
2022-11-14T13:18:41.441Z,12.77
2022-11-14T13:21:43.970Z,12.50
2022-11-14T13:24:17.053Z,13.20
2022-11-14T13:26:56.439Z,15.07
2022-11-14T13:29:58.805Z,16.47
2022-11-14T13:33:06.096Z,14.70
2022-11-14T13:36:05.902Z,13.53
2022-11-14T13:39:06.492Z,15.60
2022-11-14T13:42:12.449Z,17.90
2022-11-14T13:45:01.406Z,20.73
2022-11-14T13:48:03.661Z,24.43
2022-11-14T13:50:35.144Z,31.90
2022-11-14T13:53:03.789Z,29.97
2022-11-14T13:55:41.533Z,32.07
2022-11-14T13:58:25.242Z,35.00
2022-11-14T14:01:05.164Z,34.50
2022-11-14T14:03:47.846Z,34.33
2022-11-14T14:06:33.926Z,33.33
2022-11-14T14:09:23.872Z,35.33
2022-11-14T14:12:03.070Z,31.57
2022-11-14T14:14:51.174Z,32.53
2022-11-14T14:17:23.668Z,32.37
2022-11-14T14:20:05.567Z,38.30
2022-11-14T14:22:41.147Z,37.17
2022-11-14T14:25:17.983Z,36.77
2022-11-14T14:28:01.438Z,40.57
2022-11-14T14:30:30.853Z,40.93
2022-11-14T14:33:11.729Z,39.03
2022-11-14T14:35:41.162Z,40.67
2022-11-14T14:38:13.673Z,39.30
2022-11-14T14:40:43.089Z,46.80
2022-11-14T14:43:23.708Z,44.47
2022-11-14T14:45:55.902Z,45.40
2022-11-14T14:48:26.734Z,43.47
2022-11-14T14:50:56.750Z,46.87
2022-11-14T14:53:26.543Z,46.67
2022-11-14T14:55:57.331Z,44.77
2022-11-14T14:58:27.899Z,46.03
2022-11-14T15:00:59.985Z,43.70
2022-11-14T15:03:36.545Z,44.57
2022-11-14T15:06:07.973Z,49.83
2022-11-14T15:08:39.839Z,48.50
2022-11-14T15:11:08.907Z,56.43
2022-11-14T15:13:38.698Z,52.23
2022-11-14T15:16:10.341Z,53.13
2022-11-14T15:18:38.766Z,53.73
2022-11-14T15:21:11.695Z,51.07
2022-11-14T15:23:40.550Z,50.73
2022-11-14T15:26:15.472Z,59.43
2022-11-14T15:28:43.956Z,55.77
2022-11-14T15:31:21.021Z,55.60
2022-11-14T15:34:03.479Z,58.47
2022-11-14T15:36:31.600Z,56.57
2022-11-14T15:39:01.322Z,54.90
2022-11-14T15:41:30.427Z,55.57
2022-11-14T15:44:02.893Z,54.57
2022-11-14T15:46:47.206Z,47.53
2022-11-14T15:49:24.601Z,53.10
2022-11-14T15:51:55.404Z,48.80
2022-11-14T15:54:29.148Z,52.13
2022-11-14T15:56:58.845Z,51.87
2022-11-14T15:59:28.019Z,53.13
2022-11-14T16:02:03.319Z,52.73
2022-11-14T16:04:34.412Z,46.83
2022-11-14T16:07:02.518Z,44.27
2022-11-14T16:09:30.573Z,43.30
2022-11-14T16:11:58.653Z,44.63
2022-11-14T16:14:26.680Z,42.57
2022-11-14T16:16:54.809Z,41.50
2022-11-14T16:19:24.225Z,40.80
2022-11-14T16:21:52.285Z,41.70
2022-11-14T16:24:22.132Z,38.60
2022-11-14T16:26:50.671Z,32.53
2022-11-14T16:29:18.692Z,32.23
2022-11-14T16:31:47.289Z,40.40
2022-11-14T16:34:19.454Z,34.97
2022-11-14T16:36:49.394Z,31.60
2022-11-14T16:39:17.615Z,33.73
2022-11-14T16:41:45.740Z,32.27
2022-11-14T16:44:16.758Z,29.67
2022-11-14T16:46:45.355Z,30.27
2022-11-14T16:49:15.383Z,26.07
2022-11-14T16:51:48.830Z,27.27
2022-11-14T16:54:19.279Z,27.17
2022-11-14T16:56:47.759Z,28.60
2022-11-14T16:59:15.809Z,29.27
2022-11-14T17:01:44.176Z,28.90
2022-11-14T17:04:12.773Z,36.30
2022-11-14T17:06:40.939Z,31.17
2022-11-14T17:09:09.168Z,28.93
2022-11-14T17:11:38.597Z,28.80
2022-11-14T17:14:06.847Z,32.23
2022-11-14T17:16:35.698Z,31.60
2022-11-14T17:19:03.971Z,36.17
2022-11-14T17:21:32.694Z,35.87
2022-11-14T17:24:02.672Z,34.73
2022-11-14T17:26:31.019Z,32.50
2022-11-14T17:29:00.483Z,34.40
2022-11-14T17:31:29.838Z,29.43
2022-11-14T17:34:01.193Z,28.03
2022-11-14T17:36:31.096Z,30.60
2022-11-14T17:38:59.604Z,28.97
2022-11-14T17:41:27.596Z,30.37
2022-11-14T17:43:58.925Z,27.70
2022-11-14T17:46:28.708Z,30.10
2022-11-14T17:48:56.791Z,27.37
2022-11-14T17:51:25.569Z,26.00
2022-11-14T17:53:54.063Z,28.97
2022-11-14T17:56:24.270Z,34.37
2022-11-14T17:58:53.856Z,37.93
2022-11-14T18:01:23.844Z,36.20
2022-11-14T18:03:53.363Z,31.37
2022-11-14T18:06:27.557Z,33.57
2022-11-14T18:08:55.844Z,32.37
2022-11-14T18:11:24.214Z,33.50
2022-11-14T18:13:55.979Z,30.73
2022-11-14T18:16:31.353Z,35.80
2022-11-14T18:19:06.445Z,32.00
2022-11-14T18:21:34.564Z,35.17
2022-11-14T18:24:05.844Z,34.50
2022-11-14T18:26:34.570Z,29.60
2022-11-14T18:29:03.204Z,29.83
2022-11-14T18:31:31.622Z,37.70
2022-11-14T18:33:59.711Z,31.37
2022-11-14T18:36:29.348Z,30.47
2022-11-14T18:38:58.077Z,29.77
2022-11-14T18:41:26.214Z,31.80
2022-11-14T18:43:58.123Z,29.30
2022-11-14T18:46:27.083Z,27.47
2022-11-14T18:48:57.294Z,32.13
2022-11-14T18:51:29.438Z,29.23
2022-11-14T18:53:59.327Z,33.40
2022-11-14T18:56:27.919Z,31.07
2022-11-14T18:58:57.131Z,31.33
2022-11-14T19:01:27.044Z,35.73
2022-11-14T19:03:58.109Z,35.83
2022-11-14T19:06:28.630Z,35.37
2022-11-14T19:08:57.618Z,33.03
2022-11-14T19:11:43.460Z,31.63
2022-11-14T19:14:12.052Z,30.30
2022-11-14T19:16:40.448Z,30.23
2022-11-14T19:19:09.187Z,30.80
2022-11-14T19:21:39.046Z,34.33
2022-11-14T19:24:07.926Z,30.83
2022-11-14T19:26:36.098Z,36.87
2022-11-14T19:29:05.514Z,35.73
2022-11-14T19:31:33.994Z,39.10
2022-11-14T19:34:02.486Z,37.13
2022-11-14T19:36:58.386Z,33.57
2022-11-14T19:39:19.989Z,36.13
2022-11-14T19:41:48.831Z,36.33
2022-11-14T19:44:17.172Z,36.53
2022-11-14T19:46:47.783Z,33.80
2022-11-14T19:49:16.929Z,40.93
2022-11-14T19:51:44.902Z,32.63
2022-11-14T19:54:13.233Z,38.83
2022-11-14T19:56:42.662Z,38.37
2022-11-14T19:59:14.774Z,36.53
2022-11-14T20:01:46.241Z,36.73
2022-11-14T20:04:15.255Z,38.00
2022-11-14T20:06:43.423Z,37.43
2022-11-14T20:09:12.055Z,36.23
2022-11-14T20:11:40.361Z,35.53
2022-11-14T20:14:13.225Z,37.83
2022-11-14T20:16:41.339Z,38.17
2022-11-14T20:19:09.594Z,38.57
2022-11-14T20:21:37.821Z,37.33
2022-11-14T20:24:06.190Z,39.20
2022-11-14T20:26:34.252Z,33.23
2022-11-14T20:29:02.663Z,39.13
2022-11-14T20:31:32.795Z,45.20
2022-11-14T20:34:01.616Z,34.53
2022-11-14T20:36:44.109Z,41.87
2022-11-14T20:39:17.739Z,37.97
2022-11-14T20:41:45.858Z,37.03
2022-11-14T20:44:14.136Z,35.23
2022-11-14T20:46:43.966Z,38.67
2022-11-14T20:49:12.243Z,38.27
2022-11-14T20:51:40.545Z,40.87
2022-11-14T20:54:10.436Z,39.80
2022-11-14T20:56:38.594Z,40.63
2022-11-14T20:59:08.525Z,41.50
2022-11-14T21:01:43.286Z,39.17
2022-11-14T21:04:14.300Z,42.77
2022-11-14T21:06:42.371Z,42.67
2022-11-14T21:09:11.808Z,40.33
2022-11-14T21:11:43.174Z,40.37
2022-11-14T21:14:12.460Z,37.83
2022-11-14T21:16:44.565Z,36.13
2022-11-14T21:19:14.225Z,44.53
2022-11-14T21:21:42.624Z,37.13
2022-11-14T21:24:10.721Z,38.77
2022-11-14T21:26:40.233Z,36.77
2022-11-14T21:29:12.255Z,37.83
2022-11-14T21:31:41.888Z,38.77
2022-11-14T21:34:15.358Z,36.00
2022-11-14T21:36:45.360Z,37.27
2022-11-14T21:39:16.428Z,37.40
2022-11-14T21:41:45.476Z,36.90
2022-11-14T21:44:15.877Z,35.37
2022-11-14T21:46:46.328Z,38.13
2022-11-14T21:49:15.721Z,35.13
2022-11-14T21:51:43.780Z,34.47
2022-11-14T21:54:11.837Z,38.13
2022-11-14T21:56:39.833Z,38.23
2022-11-14T21:59:14.516Z,36.30
2022-11-14T22:02:02.018Z,39.80
2022-11-14T22:04:31.664Z,37.50
2022-11-14T22:07:00.222Z,33.23
2022-11-14T22:09:29.121Z,34.90
2022-11-14T22:11:57.592Z,34.83
2022-11-14T22:14:26.024Z,32.40
2022-11-14T22:16:54.197Z,32.57
2022-11-14T22:19:22.383Z,30.03
2022-11-14T22:21:52.072Z,29.90
2022-11-14T22:24:20.446Z,34.17
2022-11-14T22:26:48.472Z,29.87
2022-11-14T22:29:17.141Z,32.03
2022-11-14T22:31:45.298Z,29.20
2022-11-14T22:34:13.566Z,31.00
2022-11-14T22:36:41.577Z,29.50
2022-11-14T22:39:10.991Z,29.57
2022-11-14T22:41:39.041Z,29.93
2022-11-14T22:44:07.231Z,30.60
2022-11-14T22:46:35.288Z,27.67
2022-11-14T22:49:04.742Z,31.23
2022-11-14T22:51:32.919Z,33.40
2022-11-14T22:54:00.967Z,36.23
2022-11-14T22:56:32.081Z,34.03
2022-11-14T22:59:00.986Z,38.00
2022-11-14T23:01:31.332Z,32.63
2022-11-14T23:04:01.273Z,33.00
2022-11-14T23:06:30.439Z,34.40
2022-11-14T23:08:58.836Z,33.03
2022-11-14T23:11:28.444Z,34.80
2022-11-14T23:13:59.391Z,36.63
2022-11-14T23:16:29.141Z,41.77
2022-11-14T23:18:58.831Z,32.80
2022-11-14T23:21:29.390Z,37.07
2022-11-14T23:23:59.210Z,33.73
2022-11-14T23:26:28.393Z,40.70
2022-11-14T23:28:58.057Z,34.30
2022-11-14T23:31:26.399Z,36.17
2022-11-14T23:33:56.143Z,34.37
2022-11-14T23:36:24.273Z,35.70
2022-11-14T23:38:53.745Z,33.70
2022-11-14T23:41:24.685Z,38.33
2022-11-14T23:43:52.763Z,35.23
2022-11-14T23:46:22.384Z,35.23
2022-11-14T23:48:50.859Z,33.87
2022-11-14T23:51:18.899Z,34.13
2022-11-14T23:53:46.975Z,37.10
2022-11-14T23:56:15.945Z,34.20
2022-11-14T23:58:43.998Z,36.13
